Time;durP1;ratioP1;P1;durP2;ratioP2;P2;SDS_P1;SDS_P2;PMS_P1;PMS_P2;Temp;Humidity;BMP_temperature;BMP_pressure;BME280_temperature;BME280_humidity;BME280_pressure;Samples;Min_cycle;Max_cycle;Signal;HPM_P1;HPM_P2
2021/06/15 00:01:13;;;;;;;11.30;8.20;;;18.00;97.00;;;;;;6105175;23;20506;-78
2021/06/15 00:03:41;;;;;;;11.00;8.47;;;17.90;97.00;;;;;;6128506;23;20442;-78
2021/06/15 00:06:10;;;;;;;10.00;8.67;;;17.90;97.50;;;;;;6141908;23;20411;-78
2021/06/15 00:08:39;;;;;;;9.60;7.70;;;17.90;97.40;;;;;;6105067;23;20470;-77
2021/06/15 00:11:08;;;;;;;10.30;8.13;;;17.90;97.70;;;;;;6131567;23;20413;-78
2021/06/15 00:13:36;;;;;;;12.10;7.77;;;17.80;97.40;;;;;;6105793;23;20410;-78
2021/06/15 00:16:04;;;;;;;14.40;8.40;;;17.80;97.50;;;;;;6105899;23;20421;-78
2021/06/15 00:18:34;;;;;;;11.33;8.10;;;17.70;97.50;;;;;;6105175;23;20822;-78
2021/06/15 00:21:03;;;;;;;11.50;7.40;;;17.70;97.60;;;;;;6105217;23;20910;-78
2021/06/15 00:23:31;;;;;;;8.43;6.30;;;17.60;97.60;;;;;;6140339;23;20488;-78
2021/06/15 00:26:00;;;;;;;9.67;6.87;;;17.60;97.70;;;;;;6131545;23;20417;-78
2021/06/15 00:28:29;;;;;;;11.40;8.60;;;17.60;97.80;;;;;;6104828;23;20446;-78
2021/06/15 00:30:57;;;;;;;7.97;6.50;;;17.60;97.90;;;;;;6104866;23;20455;-78
2021/06/15 00:33:25;;;;;;;11.57;6.30;;;17.60;97.90;;;;;;6103964;23;20429;-78
2021/06/15 00:35:53;;;;;;;11.20;6.40;;;17.50;98.00;;;;;;6129444;23;20410;-78
2021/06/15 00:38:22;;;;;;;10.77;6.37;;;17.50;98.10;;;;;;6103973;23;20529;-78
2021/06/15 00:40:50;;;;;;;15.67;7.37;;;17.50;98.10;;;;;;6104476;23;20422;-78
2021/06/15 00:43:20;;;;;;;8.70;6.30;;;17.50;98.20;;;;;;6139913;23;20408;-78
2021/06/15 00:45:48;;;;;;;10.13;6.13;;;17.50;98.30;;;;;;6103356;23;20454;-78
2021/06/15 00:48:27;;;;;;;9.45;5.50;;;17.40;98.30;;;;;;6103155;23;20399;-78
2021/06/15 00:50:55;;;;;;;13.97;5.57;;;17.40;98.50;;;;;;6104844;23;20270;-78
2021/06/15 00:53:24;;;;;;;17.53;6.60;;;17.40;98.50;;;;;;6130561;23;20415;-78
2021/06/15 00:55:54;;;;;;;12.40;5.50;;;17.40;98.60;;;;;;6104066;23;20427;-78
2021/06/15 00:58:24;;;;;;;7.83;4.83;;;17.40;98.70;;;;;;6103937;23;20774;-78
2021/06/15 01:00:53;;;;;;;12.25;6.00;;;17.30;98.70;;;;;;6137959;23;20406;-78
2021/06/15 01:03:24;;;;;;;12.57;5.60;;;17.40;99.40;;;;;;6099248;23;20184;-78
2021/06/15 01:05:53;;;;;;;10.07;5.37;;;17.40;99.30;;;;;;6099164;23;20517;-78
2021/06/15 01:08:37;;;;;;;9.10;5.40;;;17.40;99.30;;;;;;6099701;23;20462;-77
2021/06/15 01:11:15;;;;;;;12.13;5.33;;;17.30;99.30;;;;;;6099054;23;21025;-78
2021/06/15 01:13:52;;;;;;;9.53;4.33;;;17.30;99.30;;;;;;6100465;23;20442;-78
2021/06/15 01:16:27;;;;;;;9.50;4.13;;;17.30;99.40;;;;;;6098125;23;20423;-78
2021/06/15 01:19:05;;;;;;;8.80;5.87;;;17.30;99.40;;;;;;6109536;23;20941;-78
2021/06/15 01:21:44;;;;;;;10.60;4.77;;;17.30;99.50;;;;;;6098291;23;20418;-78
2021/06/15 01:24:26;;;;;;;9.30;4.90;;;17.20;99.50;;;;;;6122599;23;20433;-78
2021/06/15 01:27:27;;;;;;;8.63;3.90;;;17.20;99.50;;;;;;6098187;23;20414;-78
2021/06/15 01:29:57;;;;;;;9.97;4.80;;;17.20;99.70;;;;;;6124487;23;20442;-78
2021/06/15 01:32:30;;;;;;;8.67;4.30;;;17.20;99.70;;;;;;6098205;23;20415;-78
2021/06/15 01:35:00;;;;;;;9.40;4.63;;;17.10;99.70;;;;;;6122833;23;20759;-78
2021/06/15 01:37:33;;;;;;;10.23;5.00;;;17.10;99.70;;;;;;6097511;23;20442;-78
2021/06/15 01:40:12;;;;;;;9.40;4.50;;;17.10;99.80;;;;;;6097748;23;20573;-78
2021/06/15 01:43:04;;;;;;;10.17;4.67;;;17.00;99.90;;;;;;6097133;23;20444;-78
2021/06/15 01:45:40;;;;;;;10.80;4.50;;;17.00;99.90;;;;;;6100130;23;20725;-78
2021/06/15 01:48:18;;;;;;;12.43;4.70;;;17.00;99.90;;;;;;6098812;23;20798;-78
2021/06/15 01:50:49;;;;;;;7.73;4.30;;;16.90;99.90;;;;;;6109412;23;20883;-78
2021/06/15 01:53:22;;;;;;;9.23;4.13;;;16.90;99.90;;;;;;6098243;23;20446;-78
2021/06/15 01:55:57;;;;;;;11.00;4.90;;;16.80;99.90;;;;;;6098707;23;20412;-78
2021/06/15 01:58:33;;;;;;;10.53;4.50;;;16.80;99.90;;;;;;6098717;23;20440;-77
2021/06/15 02:01:04;;;;;;;9.57;5.10;;;16.80;99.90;;;;;;6101915;23;20387;-78
2021/06/15 02:03:37;;;;;;;12.53;5.53;;;16.70;99.90;;;;;;6129157;23;20406;-78
2021/06/15 02:06:10;;;;;;;6.87;4.77;;;16.70;99.90;;;;;;6103774;23;20498;-78
2021/06/15 02:08:45;;;;;;;9.90;5.63;;;16.60;99.90;;;;;;6102161;23;20449;-77
2021/06/15 02:11:37;;;;;;;14.50;6.30;;;16.60;99.90;;;;;;6103763;23;20505;-78
2021/06/15 02:14:36;;;;;;;11.17;5.90;;;16.60;99.90;;;;;;6111713;23;20413;-78
2021/06/15 02:17:31;;;;;;;12.07;6.53;;;16.50;99.90;;;;;;6102916;23;20449;-78
2021/06/15 02:20:15;;;;;;;8.80;5.97;;;16.50;99.90;;;;;;6102895;23;20488;-78
2021/06/15 02:22:48;;;;;;;10.40;5.60;;;16.50;99.90;;;;;;6103395;23;20449;-78
2021/06/15 02:25:22;;;;;;;11.77;5.23;;;16.50;99.90;;;;;;6103191;23;20412;-78
2021/06/15 02:27:51;;;;;;;9.50;5.20;;;16.40;99.90;;;;;;6128148;23;20441;-78
2021/06/15 02:30:23;;;;;;;9.17;5.00;;;16.40;99.90;;;;;;6102362;23;20438;-78
2021/06/15 02:33:06;;;;;;;11.00;5.73;;;16.40;99.90;;;;;;6102653;23;20912;-78
2021/06/15 02:35:38;;;;;;;9.27;5.10;;;16.50;99.90;;;;;;6102499;23;20414;-78
2021/06/15 02:38:10;;;;;;;10.73;5.23;;;16.40;99.90;;;;;;6138225;23;20421;-77
2021/06/15 02:40:41;;;;;;;7.80;4.90;;;16.40;99.90;;;;;;6102165;23;20422;-78
2021/06/15 02:43:12;;;;;;;10.10;4.97;;;16.40;99.90;;;;;;6103947;23;20497;-78
2021/06/15 02:45:43;;;;;;;13.07;5.20;;;16.40;99.90;;;;;;6103903;23;20422;-78
2021/06/15 02:48:16;;;;;;;7.83;4.80;;;16.40;99.90;;;;;;6104515;23;20504;-77
2021/06/15 02:50:51;;;;;;;8.52;5.60;;;16.40;99.90;;;;;;6126403;23;20477;-78
2021/06/15 02:53:27;;;;;;;14.57;4.73;;;16.40;99.90;;;;;;6102475;23;20186;-78
2021/06/15 02:55:59;;;;;;;9.97;4.93;;;16.40;99.90;;;;;;6102822;23;20413;-78
2021/06/15 02:58:32;;;;;;;7.57;4.07;;;16.40;99.90;;;;;;6102769;23;20836;-78
2021/06/15 03:01:02;;;;;;;9.70;4.93;;;16.30;99.90;;;;;;6101940;23;20418;-77
2021/06/15 03:03:36;;;;;;;6.73;4.23;;;16.40;99.90;;;;;;6098000;23;20419;-78
2021/06/15 03:06:07;;;;;;;10.33;4.77;;;16.30;99.90;;;;;;6098874;23;20419;-78
2021/06/15 03:08:39;;;;;;;7.60;4.63;;;16.30;99.90;;;;;;6097497;23;20525;-78
2021/06/15 03:11:10;;;;;;;12.90;4.30;;;16.30;99.90;;;;;;6098063;23;20485;-78
2021/06/15 03:13:45;;;;;;;11.90;3.90;;;16.30;99.90;;;;;;6097368;23;20410;-78
2021/06/15 03:16:17;;;;;;;7.37;3.40;;;16.20;99.90;;;;;;6098601;23;20462;-78
2021/06/15 03:18:57;;;;;;;9.43;4.77;;;16.20;99.90;;;;;;6097258;23;20475;-78
2021/06/15 03:21:27;;;;;;;9.63;4.33;;;16.20;99.90;;;;;;6099700;23;20391;-78
2021/06/15 03:23:58;;;;;;;7.53;3.47;;;16.20;99.90;;;;;;6108769;23;20387;-78
2021/06/15 03:26:38;;;;;;;8.27;4.30;;;16.10;99.90;;;;;;6096937;23;20418;-78
2021/06/15 03:29:12;;;;;;;8.33;3.80;;;16.10;99.90;;;;;;6098247;23;20442;-78
2021/06/15 03:31:46;;;;;;;7.20;4.07;;;16.10;99.90;;;;;;6097215;23;20438;-78
2021/06/15 03:34:22;;;;;;;10.50;3.37;;;16.10;99.90;;;;;;6108695;23;20387;-78
2021/06/15 03:36:54;;;;;;;7.13;3.70;;;16.10;99.90;;;;;;6096896;23;20421;-78
2021/06/15 03:39:24;;;;;;;8.30;3.40;;;16.10;99.90;;;;;;6096619;23;20462;-78
2021/06/15 03:41:57;;;;;;;6.23;3.20;;;16.10;99.90;;;;;;6097533;23;20445;-78
2021/06/15 03:44:25;;;;;;;7.20;4.00;;;16.10;99.90;;;;;;6108869;23;20383;-78
2021/06/15 03:46:57;;;;;;;8.33;4.10;;;16.10;99.90;;;;;;6097403;23;20751;-78
2021/06/15 03:49:27;;;;;;;11.70;4.30;;;16.10;99.90;;;;;;6097456;23;20446;-78
2021/06/15 03:52:00;;;;;;;11.23;4.30;;;16.10;99.90;;;;;;6098754;23;21029;-77
2021/06/15 03:54:29;;;;;;;8.93;3.63;;;16.10;99.90;;;;;;6097841;23;20834;-78
2021/06/15 03:57:01;;;;;;;8.30;3.93;;;16.00;99.90;;;;;;6097253;23;20415;-78
2021/06/15 03:59:32;;;;;;;8.27;3.60;;;16.10;99.90;;;;;;6121812;23;20486;-78
2021/06/15 04:02:06;;;;;;;10.43;3.92;;;16.00;99.90;;;;;;6117561;23;20489;-78
2021/06/15 04:04:38;;;;;;;7.87;3.30;;;16.10;99.90;;;;;;6102000;23;20194;-78
2021/06/15 04:07:12;;;;;;;7.80;4.53;;;16.10;99.90;;;;;;6103832;23;20485;-78
2021/06/15 04:09:41;;;;;;;9.33;4.47;;;16.10;99.90;;;;;;6129652;23;20405;-78
2021/06/15 04:12:11;;;;;;;8.63;4.20;;;16.10;99.90;;;;;;6128249;23;20452;-77
2021/06/15 04:14:43;;;;;;;9.67;3.77;;;16.00;99.90;;;;;;6139450;23;20469;-78
2021/06/15 04:17:15;;;;;;;9.37;2.77;;;16.10;99.90;;;;;;6103938;23;20418;-78
2021/06/15 04:19:47;;;;;;;8.83;3.27;;;16.00;99.90;;;;;;6103449;23;20866;-78
2021/06/15 04:22:17;;;;;;;11.17;4.00;;;16.00;99.90;;;;;;6103513;23;20418;-77
2021/06/15 04:24:48;;;;;;;10.07;3.63;;;16.00;99.90;;;;;;6129420;23;20393;-78
2021/06/15 04:27:20;;;;;;;9.00;3.10;;;16.00;99.90;;;;;;6102894;23;20442;-78
2021/06/15 04:29:49;;;;;;;10.43;4.13;;;16.00;99.90;;;;;;6140193;23;20378;-78
2021/06/15 04:32:21;;;;;;;9.30;3.90;;;16.00;99.90;;;;;;6129333;23;20782;-78
2021/06/15 04:34:56;;;;;;;8.90;3.03;;;16.00;99.90;;;;;;6104202;23;20417;-78
2021/06/15 04:37:26;;;;;;;11.53;3.70;;;16.00;99.90;;;;;;6104279;23;20818;-77
2021/06/15 04:39:59;;;;;;;8.47;3.13;;;15.90;99.90;;;;;;6104140;23;20422;-78
2021/06/15 04:42:37;;;;;;;10.20;4.43;;;16.00;99.90;;;;;;6104537;23;20445;-78
2021/06/15 04:45:07;;;;;;;6.27;3.60;;;16.00;99.90;;;;;;6104876;23;20414;-77
2021/06/15 04:47:44;;;;;;;10.70;3.40;;;16.00;99.90;;;;;;6103873;23;20441;-78
2021/06/15 04:50:19;;;;;;;16.03;3.83;;;16.00;99.90;;;;;;6104166;23;20409;-78
2021/06/15 04:52:50;;;;;;;8.73;2.80;;;16.00;99.90;;;;;;6104619;23;20468;-78
2021/06/15 04:55:23;;;;;;;11.23;2.50;;;16.00;99.90;;;;;;6104413;23;20418;-78
2021/06/15 04:57:53;;;;;;;6.57;3.10;;;16.00;99.90;;;;;;6104659;23;20437;-78
2021/06/15 05:00:23;;;;;;;7.90;2.73;;;16.00;99.90;;;;;;6105113;23;20452;-78
2021/06/15 05:02:53;;;;;;;9.20;3.80;;;16.00;99.90;;;;;;6104641;23;20429;-78
2021/06/15 05:05:23;;;;;;;9.07;2.90;;;16.00;99.90;;;;;;6127698;23;20402;-78
2021/06/15 05:07:56;;;;;;;9.50;3.63;;;16.10;99.90;;;;;;6105036;23;20225;-78
2021/06/15 05:10:25;;;;;;;8.20;3.23;;;16.10;99.90;;;;;;6103397;23;20505;-78
2021/06/15 05:12:55;;;;;;;7.43;3.20;;;16.10;99.90;;;;;;6103639;23;20533;-78
2021/06/15 05:15:26;;;;;;;7.33;2.90;;;16.10;99.90;;;;;;6140007;23;20428;-78
2021/06/15 05:17:57;;;;;;;6.73;2.80;;;16.20;99.90;;;;;;6104170;23;20473;-78
2021/06/15 05:20:27;;;;;;;12.03;3.20;;;16.20;99.90;;;;;;6103856;23;20428;-78
2021/06/15 05:23:01;;;;;;;9.17;3.50;;;16.20;99.90;;;;;;6103267;23;20807;-78
2021/06/15 05:25:30;;;;;;;6.70;3.73;;;16.20;99.90;;;;;;6105606;23;20421;-78
2021/06/15 05:27:59;;;;;;;6.60;2.77;;;16.20;99.90;;;;;;6140675;23;20401;-78
2021/06/15 05:30:29;;;;;;;9.47;3.20;;;16.20;99.90;;;;;;6104682;23;20465;-78
2021/06/15 05:32:59;;;;;;;7.63;2.83;;;16.30;99.90;;;;;;6104996;23;20481;-78
2021/06/15 05:35:28;;;;;;;10.53;3.10;;;16.30;99.90;;;;;;6130481;23;20405;-78
2021/06/15 05:37:56;;;;;;;8.30;3.50;;;16.30;99.90;;;;;;6129467;23;20949;-78
2021/06/15 05:40:25;;;;;;;6.00;2.90;;;16.30;99.90;;;;;;6130600;23;20405;-78
2021/06/15 05:42:53;;;;;;;10.00;3.73;;;16.40;99.90;;;;;;6140314;23;20398;-78
2021/06/15 05:45:21;;;;;;;3.80;2.70;;;16.40;99.90;;;;;;6129358;23;20423;-78
2021/06/15 05:47:49;;;;;;;5.90;2.80;;;16.40;99.90;;;;;;6106719;23;20442;-78
2021/06/15 05:50:19;;;;;;;5.37;3.13;;;16.50;99.90;;;;;;6140828;23;20398;-78
2021/06/15 05:52:48;;;;;;;7.57;3.07;;;16.50;99.90;;;;;;6129863;23;20438;-78
2021/06/15 05:55:16;;;;;;;8.37;3.70;;;16.50;99.90;;;;;;6141603;23;20395;-78
2021/06/15 05:57:45;;;;;;;7.93;3.28;;;16.50;99.90;;;;;;6127897;23;20927;-78
2021/06/15 06:00:15;;;;;;;8.57;2.80;;;16.50;99.90;;;;;;6128349;23;20232;-78
2021/06/15 06:02:44;;;;;;;5.40;2.80;;;16.60;99.90;;;;;;6128154;23;20917;-78
2021/06/15 06:08:09;;;;;;;7.85;3.03;;;16.60;99.90;;;;;;6128411;23;20425;-78
2021/06/15 06:10:39;;;;;;;6.67;3.33;;;16.70;99.90;;;;;;6103479;23;20181;-78
2021/06/15 06:13:11;;;;;;;6.60;3.50;;;16.70;99.90;;;;;;6127133;23;20438;-78
2021/06/15 06:15:41;;;;;;;7.70;2.80;;;16.70;99.90;;;;;;6129207;23;20465;-78
2021/06/15 06:18:12;;;;;;;10.10;2.90;;;16.80;99.90;;;;;;6105355;23;20861;-78
2021/06/15 06:20:41;;;;;;;6.43;2.67;;;16.80;99.90;;;;;;6142000;23;20376;-78
2021/06/15 06:23:11;;;;;;;6.57;3.33;;;16.90;99.90;;;;;;6142971;23;20417;-78
2021/06/15 06:25:39;;;;;;;9.80;3.40;;;16.90;99.90;;;;;;6106526;23;20451;-78
2021/06/15 06:28:08;;;;;;;8.03;3.33;;;16.90;99.90;;;;;;6105997;23;20441;-78
2021/06/15 06:30:37;;;;;;;11.87;4.10;;;17.00;99.90;;;;;;6106720;23;20424;-78
2021/06/15 06:33:05;;;;;;;7.33;3.40;;;17.10;99.90;;;;;;6131460;23;20469;-78
2021/06/15 06:35:34;;;;;;;8.53;3.30;;;17.10;99.90;;;;;;6107712;23;20419;-78
2021/06/15 06:38:03;;;;;;;12.00;4.07;;;17.30;99.90;;;;;;6131182;23;20941;-78
2021/06/15 06:40:33;;;;;;;5.10;2.67;;;17.50;99.90;;;;;;6106897;23;20414;-78
2021/06/15 06:43:03;;;;;;;6.23;3.17;;;17.80;99.90;;;;;;6107997;23;20419;-79
2021/06/15 06:45:33;;;;;;;11.70;3.40;;;18.10;99.90;;;;;;6132439;23;20407;-78
2021/06/15 06:48:01;;;;;;;4.40;2.90;;;18.20;99.90;;;;;;6132982;23;20431;-77
2021/06/15 06:50:29;;;;;;;6.77;2.70;;;18.40;99.90;;;;;;6131696;23;20890;-78
2021/06/15 06:52:58;;;;;;;8.03;3.30;;;18.70;99.90;;;;;;6109087;23;20443;-79
2021/06/15 06:55:29;;;;;;;4.60;2.80;;;19.00;99.90;;;;;;6144397;23;20399;-79
2021/06/15 06:58:00;;;;;;;5.83;2.50;;;19.10;99.90;;;;;;6108857;23;21013;-78
2021/06/15 07:00:29;;;;;;;7.47;3.90;;;19.10;99.90;;;;;;6108370;23;20446;-79
2021/06/15 07:02:57;;;;;;;6.70;2.90;;;19.10;99.90;;;;;;6102914;23;20412;-79
2021/06/15 07:05:26;;;;;;;5.90;2.80;;;19.10;99.90;;;;;;6103720;23;20420;-78
2021/06/15 07:07:55;;;;;;;5.43;2.27;;;19.00;99.90;;;;;;6104761;23;20985;-78
2021/06/15 07:10:23;;;;;;;7.83;4.53;;;19.00;99.90;;;;;;6114683;23;20402;-78
2021/06/15 07:12:51;;;;;;;7.50;3.30;;;19.10;99.90;;;;;;6102881;23;20449;-79
2021/06/15 07:15:21;;;;;;;8.00;3.20;;;19.20;99.90;;;;;;6113852;23;20411;-79
2021/06/15 07:17:49;;;;;;;6.57;2.80;;;19.30;99.90;;;;;;6103635;23;20288;-78
2021/06/15 07:20:20;;;;;;;8.80;3.03;;;19.40;99.90;;;;;;6103221;23;20915;-78
2021/06/15 07:22:48;;;;;;;4.33;3.00;;;19.40;99.90;;;;;;6102838;23;20414;-79
2021/06/15 07:25:17;;;;;;;3.27;2.50;;;19.40;99.90;;;;;;6102739;23;20490;-79
2021/06/15 07:27:46;;;;;;;11.03;4.20;;;19.60;99.90;;;;;;6127509;23;20449;-78
2021/06/15 07:30:16;;;;;;;5.73;3.30;;;19.70;99.90;;;;;;6103885;23;20472;-79
2021/06/15 07:32:46;;;;;;;4.70;2.73;;;19.90;99.90;;;;;;6103629;23;20471;-78
2021/06/15 07:35:14;;;;;;;5.20;3.33;;;19.90;99.70;;;;;;6103154;23;20900;-78
2021/06/15 07:37:43;;;;;;;6.33;3.57;;;19.90;99.50;;;;;;6103783;23;20442;-78
2021/06/15 07:40:12;;;;;;;8.10;3.27;;;20.10;99.40;;;;;;6105632;23;20420;-79
2021/06/15 07:42:40;;;;;;;8.53;2.20;;;20.20;99.40;;;;;;6116153;23;20406;-78
2021/06/15 07:45:09;;;;;;;3.83;2.50;;;20.20;99.00;;;;;;6116757;23;20399;-78
2021/06/15 07:47:37;;;;;;;4.07;2.57;;;20.30;98.90;;;;;;6104888;23;20524;-78
2021/06/15 07:50:15;;;;;;;5.07;2.27;;;20.40;98.80;;;;;;6116892;23;20848;-79
2021/06/15 07:52:44;;;;;;;4.33;2.67;;;20.60;98.60;;;;;;6106607;23;20445;-78
2021/06/15 07:55:13;;;;;;;4.10;2.40;;;20.70;98.50;;;;;;6105998;23;20971;-79
2021/06/15 07:57:42;;;;;;;4.53;3.20;;;20.70;98.20;;;;;;6107803;23;20457;-79
2021/06/15 08:00:12;;;;;;;5.10;2.60;;;20.60;97.90;;;;;;6105061;23;20421;-79
2021/06/15 08:02:40;;;;;;;4.33;2.43;;;20.60;97.90;;;;;;6134059;23;20424;-79
2021/06/15 08:05:09;;;;;;;5.50;3.00;;;20.70;97.90;;;;;;6135374;23;20417;-79
2021/06/15 08:07:44;;;;;;;4.47;2.47;;;20.70;97.60;;;;;;6108661;23;20464;-78
2021/06/15 08:10:13;;;;;;;6.23;2.70;;;20.90;97.30;;;;;;6109713;23;20413;-79
2021/06/15 08:12:41;;;;;;;5.17;2.10;;;20.90;97.20;;;;;;6144146;23;20443;-78
2021/06/15 08:15:10;;;;;;;6.67;4.13;;;20.80;97.00;;;;;;6109223;23;20425;-78
2021/06/15 08:17:38;;;;;;;8.98;4.03;;;20.70;96.80;;;;;;6132363;23;20442;-79
2021/06/15 08:20:08;;;;;;;15.50;4.27;;;20.60;95.60;;;;;;6145336;23;20405;-79
2021/06/15 08:22:37;;;;;;;6.87;2.47;;;20.70;95.80;;;;;;6110073;23;20756;-79
2021/06/15 08:25:08;;;;;;;5.67;2.40;;;20.90;95.90;;;;;;6135751;23;20486;-79
2021/06/15 08:27:37;;;;;;;7.33;2.60;;;21.10;95.80;;;;;;6110424;23;20446;-79
2021/06/15 08:30:07;;;;;;;374.97;50.50;;;21.20;95.70;;;;;;6110207;23;20441;-79
2021/06/15 08:32:35;;;;;;;7.60;2.27;;;21.40;95.70;;;;;;6138096;23;20419;-79
2021/06/15 08:35:04;;;;;;;2.80;2.03;;;21.60;95.40;;;;;;6137236;23;20542;-79
2021/06/15 08:37:34;;;;;;;6.33;2.77;;;21.70;95.00;;;;;;6138052;23;20441;-79
2021/06/15 08:40:04;;;;;;;4.53;1.77;;;21.80;94.90;;;;;;6112701;23;20431;-80
2021/06/15 08:42:37;;;;;;;4.60;1.50;;;22.00;94.50;;;;;;6110767;23;20419;-80
2021/06/15 08:45:07;;;;;;;5.10;2.07;;;22.00;94.10;;;;;;6111012;23;20407;-80
2021/06/15 08:47:38;;;;;;;4.50;2.30;;;22.10;93.90;;;;;;6137240;23;20429;-79
2021/06/15 08:50:08;;;;;;;5.23;1.80;;;22.20;93.70;;;;;;6110543;23;20429;-79
2021/06/15 08:52:37;;;;;;;4.40;2.30;;;22.20;93.60;;;;;;6144213;23;20492;-79
2021/06/15 08:55:11;;;;;;;4.07;2.10;;;22.20;93.40;;;;;;6132580;23;20432;-78
2021/06/15 08:57:41;;;;;;;5.00;1.80;;;22.20;93.30;;;;;;6143214;23;20475;-78
2021/06/15 09:00:11;;;;;;;3.90;1.83;;;22.30;93.20;;;;;;6109224;23;20714;-79
2021/06/15 09:02:44;;;;;;;3.90;2.00;;;22.40;93.10;;;;;;6134949;23;20421;-79
2021/06/15 09:05:17;;;;;;;7.72;2.80;;;22.40;92.50;;;;;;6110546;23;20418;-79
2021/06/15 09:08:07;;;;;;;4.07;1.90;;;22.50;92.30;;;;;;6108575;23;20190;-78
2021/06/15 09:10:38;;;;;;;3.40;1.50;;;22.50;92.10;;;;;;6132973;23;20875;-79
2021/06/15 09:13:28;;;;;;;7.80;1.73;;;22.50;92.00;;;;;;6109715;23;20409;-79
2021/06/15 09:15:57;;;;;;;4.50;1.50;;;22.50;91.60;;;;;;6109235;23;20416;-78
2021/06/15 09:18:28;;;;;;;4.88;1.92;;;22.50;91.60;;;;;;6132233;23;21074;-79
2021/06/15 09:20:59;;;;;;;5.50;1.93;;;22.60;90.60;;;;;;6136191;23;20181;-79
2021/06/15 09:23:34;;;;;;;3.67;2.30;;;22.50;90.70;;;;;;6148115;23;20390;-79
2021/06/15 09:26:04;;;;;;;5.80;1.70;;;22.50;90.60;;;;;;6109592;23;20898;-79
2021/06/15 09:28:34;;;;;;;5.90;2.20;;;22.60;90.60;;;;;;6146643;23;20422;-79
2021/06/15 09:31:05;;;;;;;3.50;1.60;;;22.60;90.40;;;;;;6109570;23;20428;-79
2021/06/15 09:33:39;;;;;;;2.90;1.77;;;22.70;90.40;;;;;;6136844;23;20501;-78
2021/06/15 09:36:08;;;;;;;2.90;1.60;;;22.80;90.30;;;;;;6146293;23;20385;-79
2021/06/15 09:38:38;;;;;;;4.33;2.03;;;22.90;90.20;;;;;;6146370;23;20445;-79
2021/06/15 09:41:07;;;;;;;5.23;2.20;;;23.00;90.20;;;;;;6107326;23;20452;-77
2021/06/15 09:43:36;;;;;;;5.60;2.33;;;22.90;90.00;;;;;;6101006;23;20464;-76
2021/06/15 09:46:15;;;;;;;4.30;2.30;;;22.90;89.80;;;;;;6100994;23;20894;-77
2021/06/15 09:48:44;;;;;;;3.47;1.33;;;22.90;89.40;;;;;;6137195;23;20476;-76
2021/06/15 09:51:14;;;;;;;3.40;1.33;;;22.90;89.50;;;;;;6101063;23;20421;-76
2021/06/15 09:53:44;;;;;;;6.53;2.10;;;23.00;88.90;;;;;;6137218;23;20505;-76
2021/06/15 09:56:16;;;;;;;6.80;2.27;;;23.00;88.50;;;;;;6101068;23;20457;-76
2021/06/15 09:58:47;;;;;;;3.33;1.80;;;22.90;88.20;;;;;;6101009;23;20494;-76
2021/06/15 10:01:35;;;;;;;4.33;1.83;;;22.90;88.20;;;;;;6100872;23;20428;-76
2021/06/15 10:04:14;;;;;;;6.35;2.10;;;22.90;88.00;;;;;;6099836;23;20788;-76
2021/06/15 10:06:44;;;;;;;6.27;1.97;;;23.00;86.00;;;;;;6100898;23;20192;-76
2021/06/15 10:09:14;;;;;;;6.33;2.17;;;23.10;86.00;;;;;;6127179;23;20458;-76
2021/06/15 10:11:46;;;;;;;4.80;2.30;;;23.10;85.90;;;;;;6100751;23;20464;-76
2021/06/15 10:14:16;;;;;;;4.17;2.00;;;23.10;85.80;;;;;;6100913;23;20492;-77
2021/06/15 10:16:44;;;;;;;4.10;1.90;;;23.10;85.60;;;;;;6135648;23;20485;-77
2021/06/15 10:19:13;;;;;;;7.13;2.17;;;23.20;83.60;;;;;;6127011;23;20197;-76
2021/06/15 10:21:42;;;;;;;5.40;2.20;;;23.20;84.40;;;;;;6136873;23;20879;-76
2021/06/15 10:24:12;;;;;;;6.20;2.00;;;23.30;83.70;;;;;;6127068;23;20472;-76
2021/06/15 10:27:00;;;;;;;4.17;1.77;;;23.30;83.70;;;;;;6100785;23;20424;-76
2021/06/15 10:29:30;;;;;;;4.07;1.57;;;23.20;83.80;;;;;;6125388;23;20422;-76
2021/06/15 10:31:59;;;;;;;5.93;1.97;;;23.20;83.50;;;;;;6100710;23;20746;-76
2021/06/15 10:34:54;;;;;;;4.87;1.80;;;23.20;83.20;;;;;;6100596;23;20850;-76
2021/06/15 10:37:48;;;;;;;4.13;1.50;;;23.20;82.80;;;;;;6100646;23;20437;-76
2021/06/15 10:40:50;;;;;;;3.53;1.53;;;23.20;83.40;;;;;;6126631;23;20483;-77
2021/06/15 10:43:26;;;;;;;5.30;1.80;;;23.20;82.20;;;;;;6013643;23;20511;-76
2021/06/15 10:46:00;;;;;;;5.20;1.50;;;23.20;82.40;;;;;;6088379;23;20449;-76
2021/06/15 10:48:44;;;;;;;3.77;1.73;;;23.30;82.50;;;;;;6126819;23;20445;-76
2021/06/15 10:51:25;;;;;;;18.13;3.13;;;23.30;82.10;;;;;;6126526;23;20417;-76
2021/06/15 10:54:01;;;;;;;4.03;1.70;;;23.40;81.90;;;;;;6100511;23;20417;-76
2021/06/15 10:56:35;;;;;;;4.57;1.50;;;23.30;81.70;;;;;;6100459;23;20432;-76
2021/06/15 10:59:11;;;;;;;4.80;1.80;;;23.30;81.40;;;;;;6100569;23;20446;-76
2021/06/15 11:01:44;;;;;;;3.23;1.60;;;23.40;81.10;;;;;;6126718;23;20432;-76
2021/06/15 11:04:14;;;;;;;7.40;2.10;;;23.30;81.60;;;;;;6136383;23;20865;-76
2021/06/15 11:06:49;;;;;;;6.27;2.10;;;23.30;81.10;;;;;;6125091;23;20810;-75
2021/06/15 11:09:33;;;;;;;4.33;1.80;;;23.30;81.40;;;;;;6100483;23;20449;-76
2021/06/15 11:12:20;;;;;;;6.28;2.38;;;23.30;80.50;;;;;;6099622;23;20442;-76
2021/06/15 11:15:12;;;;;;;3.83;1.83;;;23.40;79.40;;;;;;6126044;23;20182;-76
2021/06/15 11:17:47;;;;;;;3.83;1.93;;;23.30;79.30;;;;;;6129053;23;20441;-78
2021/06/15 11:20:27;;;;;;;5.07;1.93;;;23.30;79.70;;;;;;6107136;23;20424;-78
2021/06/15 11:23:19;;;;;;;5.43;2.17;;;23.20;79.50;;;;;;6105600;23;20485;-78
2021/06/15 11:25:49;;;;;;;6.10;2.30;;;23.20;79.90;;;;;;6104565;23;20406;-78
2021/06/15 11:28:36;;;;;;;3.97;2.03;;;23.20;80.10;;;;;;6139825;23;20956;-78
2021/06/15 11:31:33;;;;;;;6.63;1.77;;;23.20;80.10;;;;;;6104321;23;20497;-78
2021/06/15 11:34:20;;;;;;;3.87;1.83;;;23.30;80.10;;;;;;6125739;23;20861;-75
2021/06/15 11:36:56;;;;;;;7.13;2.10;;;23.40;79.40;;;;;;6124713;23;20460;-76
2021/06/15 11:39:33;;;;;;;5.50;2.07;;;23.40;79.60;;;;;;6100560;23;20473;-75
2021/06/15 11:42:23;;;;;;;5.17;2.77;;;23.40;79.30;;;;;;6137152;23;20671;-76
2021/06/15 11:45:07;;;;;;;4.47;2.20;;;23.40;78.70;;;;;;6136135;23;20833;-75
2021/06/15 11:47:40;;;;;;;6.83;2.20;;;23.40;78.80;;;;;;6100175;23;20442;-75
2021/06/15 11:50:19;;;;;;;3.70;1.60;;;23.40;79.00;;;;;;6126628;23;20408;-76
2021/06/15 11:52:54;;;;;;;6.63;2.00;;;23.50;78.90;;;;;;6127226;23;20406;-77
2021/06/15 11:55:26;;;;;;;5.13;1.95;;;23.50;78.00;;;;;;6101063;23;20468;-76
2021/06/15 11:58:00;;;;;;;4.70;1.97;;;23.50;77.40;;;;;;6136690;23;20225;-76
2021/06/15 12:00:30;;;;;;;2.60;1.73;;;23.50;77.40;;;;;;6126151;23;20487;-76
2021/06/15 12:03:09;;;;;;;11.90;2.50;;;23.50;77.70;;;;;;6100278;23;20461;-76
2021/06/15 12:05:40;;;;;;;3.00;1.70;;;23.60;77.70;;;;;;6100551;23;20417;-77
2021/06/15 12:08:08;;;;;;;3.70;1.97;;;23.60;77.60;;;;;;6136742;23;20960;-76
2021/06/15 12:10:38;;;;;;;4.03;1.90;;;23.60;77.50;;;;;;6099215;23;20783;-75
2021/06/15 12:13:09;;;;;;;5.40;2.20;;;23.70;75.70;;;;;;6100555;23;20429;-76
2021/06/15 12:15:51;;;;;;;3.00;1.63;;;23.80;75.90;;;;;;6100524;23;20520;-76
2021/06/15 12:18:43;;;;;;;4.77;2.53;;;23.80;76.50;;;;;;6136218;23;20805;-76
2021/06/15 12:21:16;;;;;;;3.60;1.60;;;23.80;75.70;;;;;;6136113;23;20390;-76
2021/06/15 12:23:47;;;;;;;6.47;1.93;;;23.70;75.80;;;;;;6100214;23;20505;-76
2021/06/15 12:26:22;;;;;;;5.63;2.10;;;23.70;75.60;;;;;;6100636;23;20418;-76
2021/06/15 12:28:52;;;;;;;4.80;1.97;;;23.70;75.80;;;;;;6102566;23;20823;-76
2021/06/15 12:31:23;;;;;;;2.70;1.70;;;23.60;75.70;;;;;;6102935;23;20417;-76
2021/06/15 12:33:54;;;;;;;3.60;1.90;;;23.60;75.90;;;;;;6137949;23;20437;-76
2021/06/15 12:36:25;;;;;;;3.47;1.63;;;23.60;75.70;;;;;;6101712;23;20825;-76
2021/06/15 12:39:07;;;;;;;3.97;1.73;;;23.50;75.60;;;;;;6101718;23;20463;-76
2021/06/15 12:41:36;;;;;;;3.20;1.87;;;23.50;75.90;;;;;;6128300;23;20398;-76
2021/06/15 12:44:06;;;;;;;6.30;2.20;;;23.50;75.90;;;;;;6137497;23;20394;-76
2021/06/15 12:46:35;;;;;;;3.80;1.87;;;23.50;75.40;;;;;;6101600;23;20425;-76
2021/06/15 12:49:05;;;;;;;6.17;2.27;;;23.40;75.20;;;;;;6137742;23;20481;-77
2021/06/15 12:51:43;;;;;;;5.80;1.80;;;23.30;75.40;;;;;;6126074;23;20421;-76
2021/06/15 12:54:21;;;;;;;4.20;2.17;;;23.40;75.60;;;;;;6137745;23;20429;-76
2021/06/15 12:56:58;;;;;;;3.43;1.50;;;23.30;75.20;;;;;;6101589;23;20433;-76
2021/06/15 12:59:26;;;;;;;3.60;1.60;;;23.40;75.20;;;;;;6101526;23;20440;-76
2021/06/15 13:01:55;;;;;;;4.70;1.80;;;23.40;75.20;;;;;;6127335;23;20500;-77
2021/06/15 13:04:30;;;;;;;4.97;2.03;;;23.50;75.20;;;;;;6126615;23;20414;-76
2021/06/15 13:07:00;;;;;;;3.03;1.80;;;23.60;73.40;;;;;;6101624;23;20173;-76
2021/06/15 13:09:32;;;;;;;3.70;2.10;;;23.60;73.70;;;;;;6101524;23;20450;-76
2021/06/15 13:12:04;;;;;;;4.20;2.23;;;23.60;74.10;;;;;;6101476;23;20410;-76
2021/06/15 13:14:34;;;;;;;4.30;1.90;;;23.60;73.90;;;;;;6125760;23;20421;-76
2021/06/15 13:17:06;;;;;;;3.53;2.07;;;23.60;74.10;;;;;;6101312;23;20440;-76